Time;durP1;ratioP1;P1;durP2;ratioP2;P2;SDS_P1;SDS_P2;PMS_P1;PMS_P2;Temp;Humidity;BMP_temperature;BMP_pressure;BME280_temperature;BME280_humidity;BME280_pressure;Samples;Min_cycle;Max_cycle;Signal;HPM_P1;HPM_P2
2022/09/25 00:00:17;;;;;;;;;;;;;;;;;;5079745;28;19935;-75
2022/09/25 00:02:44;;;;;;;;;;;;;;;;;;5076170;28;19981;-74
2022/09/25 00:05:11;;;;;;;;;;;;;;;;;;5083366;28;19924;-74
2022/09/25 00:07:38;;;;;;;;;;;;;;;;;;5088856;28;19936;-74
2022/09/25 00:10:05;;;;;;;;;;;;;;;;;;5081640;28;20429;-74
2022/09/25 00:12:32;;;;;;;;;;;;;;;;;;5084739;28;19924;-74
2022/09/25 00:14:59;;;;;;;;;;;;;;;;;;5084956;28;20335;-74
2022/09/25 00:17:26;;;;;;;;;;;;;;;;;;5085512;28;19935;-74
2022/09/25 00:19:52;;;;;;;;;;;;;;;;;;5088424;28;19928;-74
2022/09/25 00:22:19;;;;;;;;;;;;;;;;;;5086088;28;20401;-75
2022/09/25 00:24:46;;;;;;;;;;;;;;;;;;5082143;28;19928;-74
2022/09/25 00:27:13;;;;;;;;;;;;;;;;;;5081300;28;20312;-74
2022/09/25 00:29:40;;;;;;;;;;;;;;;;;;5082644;28;19924;-74
2022/09/25 00:32:07;;;;;;;;;;;;;;;;;;5079997;28;20448;-74
2022/09/25 00:34:34;;;;;;;;;;;;;;;;;;5089943;28;19928;-74
2022/09/25 00:37:01;;;;;;;;;;;;;;;;;;5088473;28;19924;-75
2022/09/25 00:39:28;;;;;;;;;;;;;;;;;;5084877;28;19932;-74
2022/09/25 00:41:55;;;;;;;;;;;;;;;;;;5085494;28;20405;-74
2022/09/25 00:44:22;;;;;;;;;;;;;;;;;;5070400;28;19924;-74
2022/09/25 00:46:49;;;;;;;;;;;;;;;;;;5072265;28;19931;-74
2022/09/25 00:49:16;;;;;;;;;;;;;;;;;;5071333;28;19981;-74
2022/09/25 00:51:43;;;;;;;;;;;;;;;;;;5068079;28;19959;-74
2022/09/25 00:54:10;;;;;;;;;;;;;;;;;;5073658;28;19931;-74
2022/09/25 00:56:37;;;;;;;;;;;;;;;;;;5074034;28;19931;-75
2022/09/25 00:59:04;;;;;;;;;;;;;;;;;;5082819;28;19957;-74
2022/09/25 01:01:31;;;;;;;;;;;;;;;;;;5071925;28;19928;-74
2022/09/25 01:03:58;;;;;;;;;;;;;;;;;;5072660;28;20370;-75
2022/09/25 01:06:25;;;;;;;;;;;;;;;;;;5085725;28;19932;-75
2022/09/25 01:08:52;;;;;;;;;;;;;;;;;;5076108;28;19930;-74
2022/09/25 01:11:19;;;;;;;;;;;;;;;;;;5069270;28;20382;-75
2022/09/25 01:13:46;;;;;;;;;;;;;;;;;;5073029;28;19928;-74
2022/09/25 01:16:13;;;;;;;;;;;;;;;;;;5069739;28;19936;-75
2022/09/25 01:18:41;;;;;;;;;;;;;;;;;;5069121;28;19931;-75
2022/09/25 01:21:08;;;;;;;;;;;;;;;;;;5076984;28;19928;-75
2022/09/25 01:23:35;;;;;;;;;;;;;;;;;;5069445;28;19943;-74
2022/09/25 01:26:02;;;;;;;;;;;;;;;;;;5070771;28;19981;-75
2022/09/25 01:28:29;;;;;;;;;;;;;;;;;;5072340;28;19932;-75
2022/09/25 01:30:56;;;;;;;;;;;;;;;;;;5072515;28;19928;-75
2022/09/25 01:33:23;;;;;;;;;;;;;;;;;;5066064;28;19959;-75
2022/09/25 01:35:50;;;;;;;;;;;;;;;;;;5073594;28;19927;-75
2022/09/25 01:38:18;;;;;;;;;;;;;;;;;;5067262;28;20314;-75
2022/09/25 01:40:45;;;;;;;;;;;;;;;;;;5076213;28;19956;-75
2022/09/25 01:43:12;;;;;;;;;;;;;;;;;;5085122;28;19930;-74
2022/09/25 01:45:39;;;;;;;;;;;;;;;;;;5077264;28;20032;-75
2022/09/25 01:48:06;;;;;;;;;;;;;;;;;;5082838;28;19928;-74
2022/09/25 01:50:33;;;;;;;;;;;;;;;;;;5083604;28;20586;-75
2022/09/25 01:53:00;;;;;;;;;;;;;;;;;;5088860;28;19935;-75
2022/09/25 01:55:27;;;;;;;;;;;;;;;;;;5084203;28;19924;-75
2022/09/25 01:57:54;;;;;;;;;;;;;;;;;;5076885;28;19950;-75
2022/09/25 02:00:21;;;;;;;;;;;;;;;;;;5074166;28;19928;-75
2022/09/25 02:02:48;;;;;;;;;;;;;;;;;;5088769;28;20582;-74
2022/09/25 02:05:16;;;;;;;;;;;;;;;;;;5080704;28;19928;-75
2022/09/25 02:07:43;;;;;;;;;;;;;;;;;;5091771;28;19928;-75
2022/09/25 02:10:10;;;;;;;;;;;;;;;;;;5085613;28;19932;-74
2022/09/25 02:12:39;;;;;;;;;;;;;;;;;;5080427;28;20379;-75
2022/09/25 02:15:06;;;;;;;;;;;;;;;;;;5084652;28;19935;-75
2022/09/25 02:20:33;;;;;;;;;;;;;;;;;;5090008;28;19931;-75
2022/09/25 02:23:00;;;;;;;;;;;;;;;;;;5084446;28;20351;-75
2022/09/25 02:25:27;;;;;;;;;;;;;;;;;;5084631;28;19924;-75
2022/09/25 02:27:54;;;;;;;;;;;;;;;;;;5088286;28;20010;-75
2022/09/25 02:30:21;;;;;;;;;;;;;;;;;;5086710;28;20334;-75
2022/09/25 02:32:48;;;;;;;;;;;;;;;;;;5078067;28;19932;-75
2022/09/25 02:35:15;;;;;;;;;;;;;;;;;;5085535;28;19928;-75
2022/09/25 02:37:42;;;;;;;;;;;;;;;;;;5081638;28;20011;-74
2022/09/25 02:40:10;;;;;;;;;;;;;;;;;;5084308;28;20302;-74
2022/09/25 02:42:37;;;;;;;;;;;;;;;;;;5086215;28;19967;-73
2022/09/25 02:45:04;;;;;;;;;;;;;;;;;;5083129;28;19928;-72
2022/09/25 02:47:31;;;;;;;;;;;;;;;;;;5086551;28;19928;-72
2022/09/25 02:49:58;;;;;;;;;;;;;;;;;;5086969;28;19935;-72
2022/09/25 02:52:25;;;;;;;;;;;;;;;;;;5079646;28;19984;-72
2022/09/25 02:54:52;;;;;;;;;;;;;;;;;;5079728;28;19932;-72
2022/09/25 02:57:20;;;;;;;;;;;;;;;;;;5084614;28;20401;-72
2022/09/25 02:59:47;;;;;;;;;;;;;;;;;;5083620;28;19939;-72
2022/09/25 03:02:13;;;;;;;;;;;;;;;;;;5089437;28;19931;-72
2022/09/25 03:04:40;;;;;;;;;;;;;;;;;;5087785;28;19986;-72
2022/09/25 03:07:07;;;;;;;;;;;;;;;;;;5076338;28;20324;-72
2022/09/25 03:09:34;;;;;;;;;;;;;;;;;;5074490;28;19952;-72
2022/09/25 03:12:02;;;;;;;;;;;;;;;;;;5083427;28;19928;-72
2022/09/25 03:14:29;;;;;;;;;;;;;;;;;;5080939;28;19942;-72
2022/09/25 03:16:56;;;;;;;;;;;;;;;;;;5073590;28;19929;-72
2022/09/25 03:19:23;;;;;;;;;;;;;;;;;;5074120;28;19939;-72
2022/09/25 03:21:50;;;;;;;;;;;;;;;;;;5082835;28;19928;-72
2022/09/25 03:24:17;;;;;;;;;;;;;;;;;;5082768;28;19971;-72
2022/09/25 03:26:44;;;;;;;;;;;;;;;;;;5070698;28;19947;-72
2022/09/25 03:29:11;;;;;;;;;;;;;;;;;;5077620;28;20390;-72
2022/09/25 03:31:40;;;;;;;;;;;;;;;;;;5073227;28;19936;-72
2022/09/25 03:34:07;;;;;;;;;;;;;;;;;;5083286;28;19928;-72
2022/09/25 03:36:34;;;;;;;;;;;;;;;;;;5081085;28;19932;-72
2022/09/25 03:39:01;;;;;;;;;;;;;;;;;;5078426;28;20376;-72
2022/09/25 03:41:28;;;;;;;;;;;;;;;;;;5085976;28;19928;-72
2022/09/25 03:43:55;;;;;;;;;;;;;;;;;;5080729;28;20304;-72
2022/09/25 03:46:22;;;;;;;;;;;;;;;;;;5084185;28;19924;-72
2022/09/25 03:48:50;;;;;;;;;;;;;;;;;;5085331;28;19955;-72
2022/09/25 03:51:18;;;;;;;;;;;;;;;;;;5084912;28;19932;-72
2022/09/25 03:53:45;;;;;;;;;;;;;;;;;;5089913;28;19930;-72
2022/09/25 03:56:12;;;;;;;;;;;;;;;;;;5088583;28;19924;-72
2022/09/25 03:58:39;;;;;;;;;;;;;;;;;;5082910;28;19932;-72
2022/09/25 04:01:06;;;;;;;;;;;;;;;;;;5085567;28;19950;-72
2022/09/25 04:03:33;;;;;;;;;;;;;;;;;;5079392;28;20004;-72
2022/09/25 04:06:00;;;;;;;;;;;;;;;;;;5091175;28;20406;-72
2022/09/25 04:08:27;;;;;;;;;;;;;;;;;;5074480;28;19928;-72
2022/09/25 04:10:55;;;;;;;;;;;;;;;;;;5092208;28;19932;-72
2022/09/25 04:13:22;;;;;;;;;;;;;;;;;;5085973;28;19973;-72
2022/09/25 04:15:49;;;;;;;;;;;;;;;;;;5081681;28;19924;-73
2022/09/25 04:18:16;;;;;;;;;;;;;;;;;;5073629;28;19935;-73
2022/09/25 04:20:43;;;;;;;;;;;;;;;;;;5090775;28;19924;-74
2022/09/25 04:23:10;;;;;;;;;;;;;;;;;;5087048;28;20021;-74
2022/09/25 04:25:38;;;;;;;;;;;;;;;;;;5084587;28;19954;-74
2022/09/25 04:28:06;;;;;;;;;;;;;;;;;;5087114;28;19932;-74
2022/09/25 04:30:33;;;;;;;;;;;;;;;;;;5087999;28;19944;-74
2022/09/25 04:35:44;;;;;;;;;;;;;;;;;;5087050;28;19976;-74
2022/09/25 04:38:11;;;;;;;;;;;;;;;;;;5089717;28;19924;-73
2022/09/25 04:40:39;;;;;;;;;;;;;;;;;;5087861;28;19935;-73
2022/09/25 04:43:06;;;;;;;;;;;;;;;;;;5100022;28;19928;-73
2022/09/25 04:45:33;;;;;;;;;;;;;;;;;;5085662;28;20298;-73
2022/09/25 04:48:00;;;;;;;;;;;;;;;;;;5086858;28;19931;-73
2022/09/25 04:50:27;;;;;;;;;;;;;;;;;;5086694;28;19973;-73
2022/09/25 04:52:54;;;;;;;;;;;;;;;;;;5085421;28;19939;-73
2022/09/25 04:55:23;;;;;;;;;;;;;;;;;;5093447;28;19939;-73
2022/09/25 04:57:51;;;;;;;;;;;;;;;;;;5078933;28;19935;-73
2022/09/25 05:00:18;;;;;;;;;;;;;;;;;;5084104;28;19924;-73
2022/09/25 05:02:45;;;;;;;;;;;;;;;;;;5093695;28;19923;-72
2022/09/25 05:05:13;;;;;;;;;;;;;;;;;;5080893;28;20320;-73
2022/09/25 05:07:40;;;;;;;;;;;;;;;;;;5086299;28;19928;-73
2022/09/25 05:10:07;;;;;;;;;;;;;;;;;;5088638;28;19987;-73
2022/09/25 05:12:35;;;;;;;;;;;;;;;;;;5088947;28;19928;-73
2022/09/25 05:15:02;;;;;;;;;;;;;;;;;;5086456;28;21195;-73
2022/09/25 05:17:29;;;;;;;;;;;;;;;;;;5080874;28;20625;-73
2022/09/25 05:19:56;;;;;;;;;;;;;;;;;;5091013;28;19928;-73
2022/09/25 05:22:23;;;;;;;;;;;;;;;;;;5084918;28;19927;-73
2022/09/25 05:24:51;;;;;;;;;;;;;;;;;;5080680;28;19928;-73
2022/09/25 05:27:18;;;;;;;;;;;;;;;;;;5082966;28;19924;-73
2022/09/25 05:29:45;;;;;;;;;;;;;;;;;;5087601;28;19931;-73
2022/09/25 05:32:12;;;;;;;;;;;;;;;;;;5085750;28;19939;-72
2022/09/25 05:34:39;;;;;;;;;;;;;;;;;;5072601;28;19928;-72
2022/09/25 05:37:06;;;;;;;;;;;;;;;;;;5083414;28;19934;-72
2022/09/25 05:39:33;;;;;;;;;;;;;;;;;;5087542;28;19924;-72
2022/09/25 05:42:01;;;;;;;;;;;;;;;;;;5086940;28;20313;-72
2022/09/25 05:44:28;;;;;;;;;;;;;;;;;;5074171;28;19928;-73
2022/09/25 05:46:55;;;;;;;;;;;;;;;;;;5086721;28;19939;-72
2022/09/25 05:49:22;;;;;;;;;;;;;;;;;;5093203;28;20446;-72
2022/09/25 05:51:49;;;;;;;;;;;;;;;;;;5073020;28;19932;-73
2022/09/25 05:54:16;;;;;;;;;;;;;;;;;;5074139;28;19928;-73
2022/09/25 05:56:43;;;;;;;;;;;;;;;;;;5072251;28;19932;-72
2022/09/25 05:59:11;;;;;;;;;;;;;;;;;;5072496;28;19935;-72
2022/09/25 06:01:38;;;;;;;;;;;;;;;;;;5071372;28;19924;-72
2022/09/25 06:04:05;;;;;;;;;;;;;;;;;;5075209;28;19970;-72
2022/09/25 06:06:32;;;;;;;;;;;;;;;;;;5069419;28;19962;-72
2022/09/25 06:08:59;;;;;;;;;;;;;;;;;;5069614;28;20386;-72
2022/09/25 06:11:26;;;;;;;;;;;;;;;;;;5093129;28;20450;-72
2022/09/25 06:13:56;;;;;;;;;;;;;;;;;;5092107;28;19964;-73
2022/09/25 06:16:23;;;;;;;;;;;;;;;;;;5090774;28;19924;-73
2022/09/25 06:18:51;;;;;;;;;;;;;;;;;;5071479;28;19928;-72
2022/09/25 06:21:18;;;;;;;;;;;;;;;;;;5072747;28;19997;-72
2022/09/25 06:23:47;;;;;;;;;;;;;;;;;;5086798;28;19928;-72
2022/09/25 06:26:14;;;;;;;;;;;;;;;;;;5071421;28;19932;-72
2022/09/25 06:28:41;;;;;;;;;;;;;;;;;;5061801;28;20283;-72
2022/09/25 06:31:08;;;;;;;;;;;;;;;;;;5060487;28;19931;-71
2022/09/25 06:33:35;;;;;;;;;;;;;;;;;;5087128;28;19956;-70
2022/09/25 06:36:02;;;;;;;;;;;;;;;;;;5071330;28;19931;-69
2022/09/25 06:38:32;;;;;;;;;;;;;;;;;;5084893;28;19982;-69
2022/09/25 06:40:59;;;;;;;;;;;;;;;;;;5083095;28;19924;-70
2022/09/25 06:43:26;;;;;;;;;;;;;;;;;;5081786;28;20334;-69
2022/09/25 06:45:53;;;;;;;;;;;;;;;;;;5079708;28;19924;-71
2022/09/25 06:48:20;;;;;;;;;;;;;;;;;;5082239;28;19935;-71
2022/09/25 06:50:47;;;;;;;;;;;;;;;;;;5081284;28;19975;-72
2022/09/25 06:53:14;;;;;;;;;;;;;;;;;;5080234;28;19989;-71
2022/09/25 06:55:44;;;;;;;;;;;;;;;;;;5083128;28;19932;-71
2022/09/25 06:58:11;;;;;;;;;;;;;;;;;;5084537;28;19943;-71
2022/09/25 07:00:38;;;;;;;;;;;;;;;;;;5081373;28;19924;-71
2022/09/25 07:05:50;;;;;;;;;;;;;;;;;;5086187;28;20042;-72
2022/09/25 07:08:19;;;;;;;;;;;;;;;;;;5080712;28;19975;-71
2022/09/25 07:10:46;;;;;;;;;;;;;;;;;;5084108;28;19938;-72
2022/09/25 07:13:13;;;;;;;;;;;;;;;;;;5084976;28;19930;-71
2022/09/25 07:15:40;;;;;;;;;;;;;;;;;;5089074;28;20044;-71
2022/09/25 07:18:07;;;;;;;;;;;;;;;;;;5083359;28;20563;-72
2022/09/25 07:20:35;;;;;;;;;;;;;;;;;;5090631;28;20457;-72
2022/09/25 07:23:03;;;;;;;;;;;;;;;;;;5082766;28;19933;-72
2022/09/25 07:25:30;;;;;;;;;;;;;;;;;;5089469;28;19928;-72
2022/09/25 07:27:57;;;;;;;;;;;;;;;;;;5081176;28;20477;-72
2022/09/25 07:30:24;;;;;;;;;;;;;;;;;;5084304;28;19928;-72
2022/09/25 07:32:52;;;;;;;;;;;;;;;;;;5071590;28;20007;-72
2022/09/25 07:35:19;;;;;;;;;;;;;;;;;;5075627;28;19932;-72
2022/09/25 07:37:46;;;;;;;;;;;;;;;;;;5087283;28;19928;-72
2022/09/25 07:40:13;;;;;;;;;;;;;;;;;;5080739;28;19928;-72
2022/09/25 07:42:40;;;;;;;;;;;;;;;;;;5084189;28;19928;-72
2022/09/25 07:45:07;;;;;;;;;;;;;;;;;;5080497;28;19935;-72
2022/09/25 07:47:34;;;;;;;;;;;;;;;;;;5084321;28;19928;-73
2022/09/25 07:50:01;;;;;;;;;;;;;;;;;;5080425;28;19974;-72
2022/09/25 07:52:28;;;;;;;;;;;;;;;;;;5079641;28;20351;-72
2022/09/25 07:54:55;;;;;;;;;;;;;;;;;;5081024;28;19932;-72
2022/09/25 07:57:22;;;;;;;;;;;;;;;;;;5072703;28;20390;-74
2022/09/25 07:59:49;;;;;;;;;;;;;;;;;;5068914;28;19928;-72
2022/09/25 08:02:16;;;;;;;;;;;;;;;;;;5076124;28;19971;-72
2022/09/25 08:04:43;;;;;;;;;;;;;;;;;;5077250;28;20000;-72
2022/09/25 08:07:11;;;;;;;;;;;;;;;;;;5075111;28;20441;-72
2022/09/25 08:09:39;;;;;;;;;;;;;;;;;;5074083;28;19924;-72
2022/09/25 08:12:07;;;;;;;;;;;;;;;;;;5073853;28;20374;-71
2022/09/25 08:14:34;;;;;;;;;;;;;;;;;;5080099;28;19947;-72
2022/09/25 08:17:01;;;;;;;;;;;;;;;;;;5076466;28;19928;-72
2022/09/25 08:19:28;;;;;;;;;;;;;;;;;;5076859;28;19925;-71
2022/09/25 08:21:55;;;;;;;;;;;;;;;;;;5077006;28;19935;-72
2022/09/25 08:24:22;;;;;;;;;;;;;;;;;;5073912;28;20383;-72
2022/09/25 08:26:50;;;;;;;;;;;;;;;;;;5078746;28;20065;-72
2022/09/25 08:29:17;;;;;;;;;;;;;;;;;;5078448;28;20008;-72
2022/09/25 08:31:44;;;;;;;;;;;;;;;;;;5083272;28;19973;-72
2022/09/25 08:34:11;;;;;;;;;;;;;;;;;;5082799;28;19932;-71
2022/09/25 08:36:39;;;;;;;;;;;;;;;;;;5077600;28;20019;-71
2022/09/25 08:39:06;;;;;;;;;;;;;;;;;;5078495;28;19928;-71
2022/09/25 08:41:33;;;;;;;;;;;;;;;;;;5072780;28;19936;-71
2022/09/25 08:44:00;;;;;;;;;;;;;;;;;;5070720;28;19925;-71
2022/09/25 08:49:11;;;;;;;;;;;;;;;;;;5078457;28;19924;-71
2022/09/25 08:51:38;;;;;;;;;;;;;;;;;;5082006;28;19924;-71
2022/09/25 08:54:05;;;;;;;;;;;;;;;;;;5083319;28;19924;-71
2022/09/25 08:56:33;;;;;;;;;;;;;;;;;;5076554;28;20427;-72
2022/09/25 08:59:00;;;;;;;;;;;;;;;;;;5080862;28;20374;-71
2022/09/25 09:01:27;;;;;;;;;;;;;;;;;;5076405;28;19928;-71
2022/09/25 09:03:54;;;;;;;;;;;;;;;;;;5076730;28;19932;-72
2022/09/25 09:06:21;;;;;;;;;;;;;;;;;;5076469;28;19959;-71
2022/09/25 09:08:48;;;;;;;;;;;;;;;;;;5078704;28;19932;-72
2022/09/25 09:11:15;;;;;;;;;;;;;;;;;;5078158;28;19928;-72
2022/09/25 09:13:42;;;;;;;;;;;;;;;;;;5081914;28;20622;-72
2022/09/25 09:16:09;;;;;;;;;;;;;;;;;;5074202;28;19970;-72
2022/09/25 09:18:36;;;;;;;;;;;;;;;;;;5077522;28;19966;-72
2022/09/25 09:21:03;;;;;;;;;;;;;;;;;;5079699;28;19928;-72
2022/09/25 09:23:30;;;;;;;;;;;;;;;;;;5071157;28;20387;-72
2022/09/25 09:25:57;;;;;;;;;;;;;;;;;;5074540;28;19928;-72
2022/09/25 09:28:24;;;;;;;;;;;;;;;;;;5075288;28;19932;-72
2022/09/25 09:30:51;;;;;;;;;;;;;;;;;;5079188;28;19935;-71
2022/09/25 09:33:18;;;;;;;;;;;;;;;;;;5088131;28;19996;-72
2022/09/25 09:35:45;;;;;;;;;;;;;;;;;;5082772;28;20036;-72
2022/09/25 09:38:13;;;;;;;;;;;;;;;;;;5086000;28;19935;-72
2022/09/25 09:40:40;;;;;;;;;;;;;;;;;;5083430;28;19971;-72
2022/09/25 09:43:07;;;;;;;;;;;;;;;;;;5088108;28;19951;-72
2022/09/25 09:45:34;;;;;;;;;;;;;;;;;;5079533;28;19939;-73
2022/09/25 09:48:02;;;;;;;;;;;;;;;;;;5084415;28;19993;-72
2022/09/25 09:50:29;;;;;;;;;;;;;;;;;;5075801;28;19924;-73
2022/09/25 09:52:56;;;;;;;;;;;;;;;;;;5076585;28;19932;-73
2022/09/25 09:55:23;;;;;;;;;;;;;;;;;;5084039;28;20295;-73
2022/09/25 09:57:50;;;;;;;;;;;;;;;;;;5081589;28;19932;-73
2022/09/25 10:00:17;;;;;;;;;;;;;;;;;;5087330;28;19979;-73
2022/09/25 10:02:44;;;;;;;;;;;;;;;;;;5085223;28;19932;-73
2022/09/25 10:05:12;;;;;;;;;;;;;;;;;;5089744;28;20005;-73
2022/09/25 10:07:39;;;;;;;;;;;;;;;;;;5086945;28;20027;-73
2022/09/25 10:10:06;;;;;;;;;;;;;;;;;;5091567;28;19924;-73
2022/09/25 10:12:33;;;;;;;;;;;;;;;;;;5090756;28;20337;-73
2022/09/25 10:15:00;;;;;;;;;;;;;;;;;;5094779;28;19924;-73
2022/09/25 10:17:27;;;;;;;;;;;;;;;;;;5085097;28;20489;-73
2022/09/25 10:19:54;;;;;;;;;;;;;;;;;;5089098;28;19939;-73
2022/09/25 10:22:21;;;;;;;;;;;;;;;;;;5085605;28;19931;-73
2022/09/25 10:24:50;;;;;;;;;;;;;;;;;;5088110;28;19928;-73
2022/09/25 10:27:17;;;;;;;;;;;;;;;;;;5086938;28;20026;-73
2022/09/25 10:29:44;;;;;;;;;;;;;;;;;;5084895;28;19974;-73
2022/09/25 10:32:11;;;;;;;;;;;;;;;;;;5090612;28;20026;-73
2022/09/25 10:34:39;;;;;;;;;;;;;;;;;;5099751;28;19927;-73
2022/09/25 10:37:06;;;;;;;;;;;;;;;;;;5091193;28;19924;-73
2022/09/25 10:39:33;;;;;;;;;;;;;;;;;;5087879;28;19935;-73
2022/09/25 10:42:00;;;;;;;;;;;;;;;;;;5079937;28;19925;-73
2022/09/25 10:44:27;;;;;;;;;;;;;;;;;;5093778;28;19928;-73
2022/09/25 10:52:24;;;;;;;;;;;;;;;;;;5091801;28;20617;-73
2022/09/25 10:54:51;;;;;;;;;;;;;;;;;;5089034;28;19940;-74
2022/09/25 10:57:18;;;;;;;;;;;;;;;;;;5083980;28;19928;-73
2022/09/25 10:59:47;;;;;;;;;;;;;;;;;;5080388;28;19928;-74
2022/09/25 11:02:14;;;;;;;;;;;;;;;;;;5089386;28;19931;-74
2022/09/25 11:04:41;;;;;;;;;;;;;;;;;;5081182;28;19924;-74
2022/09/25 11:07:08;;;;;;;;;;;;;;;;;;5074543;28;19935;-77
2022/09/25 11:09:35;;;;;;;;;;;;;;;;;;5076757;28;19924;-77
2022/09/25 11:12:02;;;;;;;;;;;;;;;;;;5078044;28;20284;-75
2022/09/25 11:14:31;;;;;;;;;;;;;;;;;;5076005;28;19932;-75
2022/09/25 11:16:58;;;;;;;;;;;;;;;;;;5075219;28;19931;-75
2022/09/25 11:19:27;;;;;;;;;;;;;;;;;;5078048;28;19950;-76
2022/09/25 11:21:58;;;;;;;;;;;;;;;;;;5070226;28;19979;-75
2022/09/25 11:24:25;;;;;;;;;;;;;;;;;;5071391;28;19931;-76
2022/09/25 11:26:52;;;;;;;;;;;;;;;;;;5076197;28;19939;-76
2022/09/25 11:29:20;;;;;;;;;;;;;;;;;;5080026;28;19943;-76
2022/09/25 11:31:47;;;;;;;;;;;;;;;;;;5086022;28;19935;-76
2022/09/25 11:34:14;;;;;;;;;;;;;;;;;;5084409;28;19928;-76
2022/09/25 11:36:41;;;;;;;;;;;;;;;;;;5084218;28;20010;-75
2022/09/25 11:41:53;;;;;;;;;;;;;;;;;;5075448;28;19920;-76
2022/09/25 11:44:20;;;;;;;;;;;;;;;;;;5070295;28;20053;-77
2022/09/25 11:46:49;;;;;;;;;;;;;;;;;;5083413;28;20421;-76
2022/09/25 11:49:16;;;;;;;;;;;;;;;;;;5072802;28;20356;-77
2022/09/25 11:51:43;;;;;;;;;;;;;;;;;;5082204;28;19985;-77
2022/09/25 11:54:11;;;;;;;;;;;;;;;;;;5081820;28;19928;-77
2022/09/25 11:56:38;;;;;;;;;;;;;;;;;;5076470;28;19981;-77
2022/09/25 11:59:05;;;;;;;;;;;;;;;;;;5082083;28;19973;-77
2022/09/25 12:01:32;;;;;;;;;;;;;;;;;;5082901;28;19924;-78
2022/09/25 12:03:59;;;;;;;;;;;;;;;;;;5083228;28;19935;-78
2022/09/25 12:06:26;;;;;;;;;;;;;;;;;;5076136;28;19931;-78
2022/09/25 12:08:53;;;;;;;;;;;;;;;;;;5079493;28;19959;-78
2022/09/25 12:11:20;;;;;;;;;;;;;;;;;;5081075;28;19928;-79
2022/09/25 12:13:48;;;;;;;;;;;;;;;;;;5084652;28;19927;-78
2022/09/25 12:16:15;;;;;;;;;;;;;;;;;;5077213;28;19928;-78
2022/09/25 12:18:42;;;;;;;;;;;;;;;;;;5076713;28;19971;-79
2022/09/25 12:21:09;;;;;;;;;;;;;;;;;;5083232;28;19947;-79
2022/09/25 12:23:36;;;;;;;;;;;;;;;;;;5078595;28;19924;-78
2022/09/25 12:26:03;;;;;;;;;;;;;;;;;;5082647;28;19931;-79
2022/09/25 12:28:30;;;;;;;;;;;;;;;;;;5074489;28;20487;-80
2022/09/25 12:30:58;;;;;;;;;;;;;;;;;;5075695;28;19945;-78
2022/09/25 12:33:25;;;;;;;;;;;;;;;;;;5073839;28;19929;-80
2022/09/25 12:35:52;;;;;;;;;;;;;;;;;;5075036;28;20307;-79
2022/09/25 12:38:19;;;;;;;;;;;;;;;;;;5079659;28;19935;-79
2022/09/25 12:40:46;;;;;;;;;;;;;;;;;;5090014;28;19935;-79
2022/09/25 12:43:14;;;;;;;;;;;;;;;;;;5087536;28;19934;-79
2022/09/25 12:45:41;;;;;;;;;;;;;;;;;;5085818;28;19924;-80
2022/09/25 12:48:08;;;;;;;;;;;;;;;;;;5086330;28;20401;-79
2022/09/25 12:50:36;;;;;;;;;;;;;;;;;;5073676;28;19924;-80
2022/09/25 12:53:03;;;;;;;;;;;;;;;;;;5073519;28;19928;-81
2022/09/25 12:55:30;;;;;;;;;;;;;;;;;;5072442;28;19970;-83
2022/09/25 12:57:57;;;;;;;;;;;;;;;;;;5068351;28;19928;-83
2022/09/25 13:00:24;;;;;;;;;;;;;;;;;;5069614;28;19928;-80
2022/09/25 13:02:51;;;;;;;;;;;;;;;;;;5076567;28;19947;-81
2022/09/25 13:05:19;;;;;;;;;;;;;;;;;;5072387;28;19928;-82
2022/09/25 13:07:47;;;;;;;;;;;;;;;;;;5072200;28;19928;-83
2022/09/25 13:10:14;;;;;;;;;;;;;;;;;;5079645;28;19935;-80
2022/09/25 13:12:41;;;;;;;;;;;;;;;;;;5076378;28;20023;-80
2022/09/25 13:15:08;;;;;;;;;;;;;;;;;;5078797;28;19968;-84
2022/09/25 13:17:35;;;;;;;;;;;;;;;;;;5080868;28;19939;-85
2022/09/25 13:20:02;;;;;;;;;;;;;;;;;;5085127;28;19932;-81
2022/09/25 13:22:33;;;;;;;;;;;;;;;;;;5081707;28;19972;-84
2022/09/25 13:25:00;;;;;;;;;;;;;;;;;;5086575;28;20003;-80
2022/09/25 13:27:29;;;;;;;;;;;;;;;;;;5082747;28;21253;-81
2022/09/25 13:29:56;;;;;;;;;;;;;;;;;;5084914;28;19928;-82
2022/09/25 13:32:23;;;;;;;;;;;;;;;;;;5091690;28;19928;-84
2022/09/25 13:34:50;;;;;;;;;;;;;;;;;;5079909;28;19924;-84
2022/09/25 13:37:17;;;;;;;;;;;;;;;;;;5078672;28;19978;-82
2022/09/25 13:42:29;;;;;;;;;;;;;;;;;;5076052;28;19929;-80
2022/09/25 13:44:57;;;;;;;;;;;;;;;;;;5082446;28;19928;-85
2022/09/25 13:47:26;;;;;;;;;;;;;;;;;;5083955;28;19928;-84
2022/09/25 13:49:53;;;;;;;;;;;;;;;;;;5084741;28;19949;-80
2022/09/25 13:52:20;;;;;;;;;;;;;;;;;;5082236;28;20010;-84
2022/09/25 13:54:47;;;;;;;;;;;;;;;;;;5076086;28;19928;-83
2022/09/25 13:57:14;;;;;;;;;;;;;;;;;;5083808;28;19924;-80
2022/09/25 13:59:41;;;;;;;;;;;;;;;;;;5082280;28;19931;-83
2022/09/25 14:02:08;;;;;;;;;;;;;;;;;;5075153;28;19927;-81
2022/09/25 14:04:36;;;;;;;;;;;;;;;;;;5078280;28;20011;-81
2022/09/25 14:07:03;;;;;;;;;;;;;;;;;;5083609;28;20010;-78
2022/09/25 14:09:30;;;;;;;;;;;;;;;;;;5086383;28;19932;-82
2022/09/25 14:11:57;;;;;;;;;;;;;;;;;;5083842;28;19928;-82
2022/09/25 14:14:25;;;;;;;;;;;;;;;;;;5084108;28;19927;-83
2022/09/25 14:16:52;;;;;;;;;;;;;;;;;;5086054;28;19932;-83
2022/09/25 14:19:19;;;;;;;;;;;;;;;;;;5086023;28;20626;-82
2022/09/25 14:21:46;;;;;;;;;;;;;;;;;;5088133;28;19924;-81
2022/09/25 14:24:14;;;;;;;;;;;;;;;;;;5086755;28;19932;-78
2022/09/25 14:26:41;;;;;;;;;;;;;;;;;;5076287;28;20050;-82
2022/09/25 14:29:08;;;;;;;;;;;;;;;;;;5080192;28;20015;-81
2022/09/25 14:31:36;;;;;;;;;;;;;;;;;;5075556;28;19925;-77
2022/09/25 14:34:03;;;;;;;;;;;;;;;;;;5080772;28;20346;-81
2022/09/25 14:36:35;;;;;;;;;;;;;;;;;;5084816;28;19965;-81
2022/09/25 14:39:03;;;;;;;;;;;;;;;;;;5087177;28;20054;-80
2022/09/25 14:41:30;;;;;;;;;;;;;;;;;;5084386;28;19927;-83
2022/09/25 14:43:57;;;;;;;;;;;;;;;;;;5086430;28;19932;-81
2022/09/25 14:46:24;;;;;;;;;;;;;;;;;;5090929;28;20651;-81
2022/09/25 14:48:51;;;;;;;;;;;;;;;;;;5090593;28;19967;-83
2022/09/25 14:51:18;;;;;;;;;;;;;;;;;;5079667;28;21464;-80
2022/09/25 14:53:45;;;;;;;;;;;;;;;;;;5081951;28;19928;-83
2022/09/25 14:56:14;;;;;;;;;;;;;;;;;;5076997;28;20017;-83
2022/09/25 14:58:41;;;;;;;;;;;;;;;;;;5089559;28;20550;-83
2022/09/25 15:01:08;;;;;;;;;;;;;;;;;;5084422;28;19928;-80
2022/09/25 15:03:35;;;;;;;;;;;;;;;;;;5084873;28;19976;-81
2022/09/25 15:06:02;;;;;;;;;;;;;;;;;;5080657;28;19936;-82
2022/09/25 15:08:29;;;;;;;;;;;;;;;;;;5079515;28;19935;-81
2022/09/25 15:10:56;;;;;;;;;;;;;;;;;;5076509;28;19935;-83
2022/09/25 15:13:23;;;;;;;;;;;;;;;;;;5072622;28;20032;-80
2022/09/25 15:18:31;;;;;;;;;;;;;;;;;;5080396;28;19920;-80
2022/09/25 15:20:58;;;;;;;;;;;;;;;;;;5080520;28;19932;-82
2022/09/25 15:23:25;;;;;;;;;;;;;;;;;;5077544;28;19932;-80
2022/09/25 15:25:52;;;;;;;;;;;;;;;;;;5085110;28;19924;-80
2022/09/25 15:28:19;;;;;;;;;;;;;;;;;;5079065;28;19935;-79
2022/09/25 15:30:46;;;;;;;;;;;;;;;;;;5082740;28;19924;-81
2022/09/25 15:33:13;;;;;;;;;;;;;;;;;;5081276;28;19928;-79
2022/09/25 15:35:40;;;;;;;;;;;;;;;;;;5082414;28;19928;-86
2022/09/25 15:38:07;;;;;;;;;;;;;;;;;;5080104;28;19931;-79
2022/09/25 15:40:34;;;;;;;;;;;;;;;;;;5083508;28;20050;-79
2022/09/25 15:43:01;;;;;;;;;;;;;;;;;;5088725;28;19982;-77
2022/09/25 15:45:28;;;;;;;;;;;;;;;;;;5081178;28;19928;-77
2022/09/25 15:47:56;;;;;;;;;;;;;;;;;;5074137;28;19928;-81
2022/09/25 15:50:23;;;;;;;;;;;;;;;;;;5084275;28;20386;-78
2022/09/25 15:52:51;;;;;;;;;;;;;;;;;;5085140;28;19928;-80
2022/09/25 15:55:18;;;;;;;;;;;;;;;;;;5084589;28;20028;-83
2022/09/25 15:57:45;;;;;;;;;;;;;;;;;;5081601;28;19943;-76
2022/09/25 16:05:41;;;;;;;;;;;;;;;;;;5079506;28;19920;-81
2022/09/25 16:08:08;;;;;;;;;;;;;;;;;;5080186;28;19935;-81
2022/09/25 16:10:35;;;;;;;;;;;;;;;;;;5084333;28;19928;-82
2022/09/25 16:13:02;;;;;;;;;;;;;;;;;;5080694;28;19932;-81
2022/09/25 16:15:30;;;;;;;;;;;;;;;;;;5078546;28;19932;-81
2022/09/25 16:17:57;;;;;;;;;;;;;;;;;;5072812;28;20517;-83
2022/09/25 16:20:24;;;;;;;;;;;;;;;;;;5074612;28;20709;-81
2022/09/25 16:22:52;;;;;;;;;;;;;;;;;;5074839;28;19941;-80
2022/09/25 16:25:20;;;;;;;;;;;;;;;;;;5075330;28;19935;-80
2022/09/25 16:27:47;;;;;;;;;;;;;;;;;;5077107;28;20421;-80
2022/09/25 16:30:15;;;;;;;;;;;;;;;;;;5070495;28;19935;-79
2022/09/25 16:32:42;;;;;;;;;;;;;;;;;;5074072;28;19952;-80
2022/09/25 16:35:09;;;;;;;;;;;;;;;;;;5076189;28;20616;-80
2022/09/25 16:37:36;;;;;;;;;;;;;;;;;;5077147;28;19972;-82
2022/09/25 16:40:03;;;;;;;;;;;;;;;;;;5072350;28;19952;-82
2022/09/25 16:42:34;;;;;;;;;;;;;;;;;;5078666;28;19951;-81
2022/09/25 16:45:02;;;;;;;;;;;;;;;;;;5076098;28;19924;-82
2022/09/25 16:47:29;;;;;;;;;;;;;;;;;;5074485;28;19958;-80
2022/09/25 16:49:56;;;;;;;;;;;;;;;;;;5080395;28;19928;-82
2022/09/25 16:52:23;;;;;;;;;;;;;;;;;;5072743;28;19959;-81
2022/09/25 16:54:52;;;;;;;;;;;;;;;;;;5076385;28;19924;-82
2022/09/25 16:57:19;;;;;;;;;;;;;;;;;;5074995;28;19924;-81
2022/09/25 16:59:46;;;;;;;;;;;;;;;;;;5079358;28;20371;-80
2022/09/25 17:02:13;;;;;;;;;;;;;;;;;;5083274;28;19930;-81
2022/09/25 17:04:40;;;;;;;;;;;;;;;;;;5080906;28;20386;-78
2022/09/25 17:07:07;;;;;;;;;;;;;;;;;;5086129;28;19934;-81
2022/09/25 17:09:34;;;;;;;;;;;;;;;;;;5089145;28;19928;-82
2022/09/25 17:12:03;;;;;;;;;;;;;;;;;;5088852;28;19931;-80
2022/09/25 17:14:31;;;;;;;;;;;;;;;;;;5084765;28;19928;-78